GMAG

Goulimime

Goulimime, Morocco
METAR GMAG 151400Z 28020KT 8000 NSC 28/15 Q1014 NOSIG
Observed Flight Rules
Aug-15 @ 14:00 UTC (an hour ago) Marginal Visual Flight Rules
Wind Visibility Clouds
280° at 20 knots 7,998 meters
  • Clear skies
Temperatures Readings
Current 28°C / 82°F
Dewpoint 15°C / 59°F
Humidity 45%
Altimeter 29.94" Hg
Pressure 1014 hPa
Elevation 333
METAR GMAG 151400Z 28020KT 8000 NSC 28/15 Q1014 NOSIG
Observed Flight Rules
Aug-15 @ 14:00 UTC
(an hour ago)
MVFR
Wind Visibility
280° at 20 knots 7,998 meters
Clouds
  • Clear skies
Temperature Dewpoint
28°C / 82°F 15°C / 59°F
Humidity Altimeter Pressure
45% 29.94" Hg 1014 hPa